ADDS TAF Data INFO
IDs: Format: Raw Decoded Include METARs

Data at: 0240 UTC 25 Aug 2016

Region: TOP
KATL 250200Z 2502/2606 11004KT P6SM SCT200
  FM251500 09004KT P6SM SCT040
  FM251700 07004KT P6SM BKN050
  FM260000 07005KT P6SM BKN250


KBOS 242327Z 2500/2606 20007KT P6SM FEW250
  FM251400 22010G17KT P6SM FEW250
  FM260500 22011G18KT P6SM VCSH BKN090


KBWI 242320Z 2500/2606 16006KT P6SM FEW050 SCT200
  FM251500 20009KT P6SM BKN050
  FM260300 20004KT P6SM SCT250


KCLE 250116Z 2501/2606 19012G20KT P6SM SCT040 OVC100
  TEMPO 2503/2505 3SM -TSRA OVC025CB
  FM250500 22008KT P6SM BKN035 BKN100
  FM251000 22006KT 5SM BR SCT020
  FM251400 22010KT P6SM BKN020
  FM251600 22010G20KT P6SM BKN040
  FM252000 22010G30KT 3SM TSRA OVC025CB
  FM252200 24008KT P6SM SCT025 BKN080


KCLT 250234Z 2503/2524 33004KT P6SM FEW070 BKN250
  FM250400 26003KT P6SM FEW070 BKN250
  FM250800 21003KT P6SM FEW080 SCT250
  FM252000 26006KT P6SM BKN060


KCVG 242325Z 2500/2606 20008KT P6SM VCTS BKN040CB BKN100
  FM250200 20006KT P6SM SCT050 BKN250
  FM251500 22010KT P6SM SCT040 BKN100
  FM252300 26008KT P6SM FEW040


KDCA 242320Z 2500/2524 17006KT P6SM FEW050 SCT200
  FM251400 19009KT P6SM BKN050


KDEN 250047Z 2501/2606 06005KT P6SM SCT070 BKN160
  FM250130 07005KT P6SM -SHRA SCT070 OVC120
  FM250300 18008KT P6SM FEW070 SCT120
  FM251200 21008KT P6SM FEW120
  FM251500 VRB05KT P6SM FEW120 BKN250
  FM251800 11010KT P6SM FEW100 BKN250
  FM260000 19015KT P6SM VCTS SCT080 BKN120CB
  FM260400 19012KT P6SM SCT080 BKN120


KDFW 242322Z 2500/2606 17015KT P6SM FEW050 FEW250
  FM250200 17010KT P6SM SCT050 SCT250


KDTW 242341Z 2500/2606 20010KT P6SM BKN040 OVC080
  TEMPO 2500/2502 1SM TSRA OVC020CB
  FM250200 20005KT 4SM BR BKN020 OVC040
  FM250900 24003KT 3SM BR SCT020
  FM251400 23005KT P6SM BKN025


KEWR 250231Z 2503/2606 19008KT P6SM SCT250
  FM250400 22005KT P6SM SCT250
  FM251700 20012G17KT P6SM FEW060 SCT250
  FM260000 21009KT P6SM SCT060 BKN150
  TEMPO 2600/2604 -SHRA BKN060


KFLL 242324Z 2500/2524 04010KT P6SM VCTS SCT025CB BKN050
  FM251400 08010KT P6SM VCTS SCT035CB BKN050


KIAD 242320Z 2500/2606 16005KT P6SM FEW050 SCT200
  FM251400 20009KT P6SM BKN050
  FM260300 18004KT P6SM SCT250


KIAH 242340Z 2500/2606 15008KT P6SM FEW035 SCT050 BKN250
  FM250200 16004KT P6SM SKC
  FM251000 VRB04KT P6SM FEW025 SCT250
  FM251600 07003KT P6SM SCT035
  FM252000 11006KT P6SM VCTS BKN050CB
  FM252300 09005KT P6SM FEW060 SCT250
  FM260300 10003KT P6SM SCT100 SCT250


KJFK 250231Z 2503/2606 21009KT P6SM SCT250
  FM251700 18015KT P6SM FEW060 SCT250
  FM260000 21012KT P6SM SCT060 BKN150
  TEMPO 2600/2604 -SHRA BKN060


KLAS 242320Z 2500/2524 10006KT P6SM SCT120
  FM250300 20009KT P6SM SKC
  FM251800 18014G22KT P6SM FEW120


KLAX 242345Z 2500/2606 24012KT P6SM SKC
  FM250400 26006KT P6SM SKC
  FM250800 VRB03KT P6SM BKN007
  FM251700 25008KT P6SM FEW010
  FM252000 26012KT P6SM SKC
  FM260400 25007KT P6SM SKC


KLGA 250231Z 2503/2524 21008KT P6SM SCT250
  FM251900 18013G18KT P6SM FEW060 SCT250


KMCO 242321Z 2500/2524 05011KT P6SM FEW035 SCT150 BKN250
  FM250200 04006KT P6SM FEW020 SCT150 BKN250
  FM251500 05012KT P6SM VCSH SCT025 BKN080
  FM251800 05015G23KT P6SM VCSH FEW045 SCT150 BKN250


KMDW 242330Z 2500/2524 25008KT P6SM FEW030 SCT250
  FM250500 24006KT P6SM VCSH SCT035 BKN150
  FM250700 23004KT P6SM VCTS SCT040CB BKN100
  TEMPO 2507/2511 3SM TSRA SCT010 BKN025CB
  FM251300 29007KT P6SM VCSH BKN025
  FM251900 30009KT P6SM SCT035
  FM252100 31010KT P6SM SCT150


KMEM 242324Z 2500/2524 20005KT P6SM SCT045 SCT250
  FM250100 19004KT P6SM FEW250
  FM251600 20004KT P6SM FEW035 SCT250


KMIA 242324Z 2500/2524 04008KT P6SM VCTS SCT025CB BKN050
  TEMPO 2500/2502 VRB06KT P6SM
  FM251400 08010KT P6SM VCTS SCT025CB BKN050


KMSP 242359Z 2500/2606 28009KT P6SM OVC250
  FM250600 26004KT P6SM BKN250
  FM251700 28013G20KT P6SM FEW250
  FM260000 30007KT P6SM FEW070 BKN120
  FM260500 00000KT P6SM FEW200


KORD 242330Z 2500/2606 25008KT P6SM FEW030 SCT250
  FM250500 24006KT P6SM VCSH SCT035 BKN150
  FM250700 23004KT P6SM VCTS SCT040CB BKN100
  TEMPO 2507/2511 3SM TSRA SCT010 BKN025CB
  FM251300 29007KT P6SM VCSH BKN025
  FM251900 30009KT P6SM SCT035
  FM252100 31010KT P6SM SCT150
  FM260100 29004KT P6SM FEW150 SCT250


KPDX 242341Z 2500/2524 32013KT P6SM FEW070
  FM250400 30009KT P6SM SKC
  FM250800 VRB03KT P6SM SKC
  FM251700 07007KT P6SM SKC


KPHL 242337Z 2500/2606 21007KT P6SM FEW250
  FM251500 20008KT P6SM FEW050
  FM251800 20012G18KT P6SM SCT050
  FM260000 20006KT P6SM FEW250


KPHX 250208Z 2502/2524 04015G25KT P6SM -SHRA BKN100 BKN150
  FM250300 36010G20KT P6SM VCSH SCT100 BKN150 BKN200
  FM250600 09006KT P6SM FEW250


KPIT 242338Z 2500/2606 19005KT P6SM BKN250
  FM250500 18005KT P6SM VCSH BKN050
  FM251400 22007KT P6SM VCTS BKN040CB
  FM260200 25005KT P6SM BKN050


KSAN 242320Z 2500/2606 32009KT P6SM SKC
  FM250100 VRB04KT P6SM SCT016
  FM250700 VRB04KT P6SM OVC015
  FM251630 VRB04KT P6SM SCT018
  FM251900 27010KT P6SM SKC
  FM260100 VRB05KT P6SM SCT018


KSEA 242320Z 2500/2606 36010KT P6SM FEW050 FEW250
  FM250300 02008KT P6SM SCT250
  FM251900 35010KT P6SM SCT250


KSFO 242327Z 2500/2606 29022G26KT P6SM FEW007
  FM250400 29014KT P6SM FEW008
  FM250600 29009KT P6SM FEW008
  FM251000 28008KT P6SM FEW008 OVC012
  FM251800 31009KT P6SM FEW010
  FM252100 30014KT P6SM FEW012


KSLC 242340Z 2500/2606 02010KT P6SM SCT200
  FM250400 15006KT P6SM SKC
  FM251700 33009KT P6SM SCT130 BKN180
  FM260300 15005KT P6SM SCT180


KSTL 242339Z 2500/2606 21007KT P6SM VCTS SCT045CB
  FM250100 20007KT P6SM SCT250
  FM251500 26008KT P6SM SCT045
  FM251800 30007KT P6SM SCT045
  FM260000 01005KT P6SM BKN100


KTPA 242320Z 2500/2524 06006KT P6SM FEW035 SCT150 BKN250
  FM251000 04005KT P6SM SCT010 BKN030
  FM251500 05008KT P6SM VCSH SCT025 BKN050
  FM251800 06010KT P6SM VCTS SCT035CB BKN050 OVC120